Time;durP1;ratioP1;P1;durP2;ratioP2;P2;SDS_P1;SDS_P2;PMS_P1;PMS_P2;Temp;Humidity;BMP_temperature;BMP_pressure;BME280_temperature;BME280_humidity;BME280_pressure;Samples;Min_cycle;Max_cycle;Signal;HPM_P1;HPM_P2
2021/01/10 00:00:35;;;;;;;43.65;22.23;;;3.10;99.90;;;;;;5073262;28;20348;-69
2021/01/10 00:03:01;;;;;;;45.72;22.83;;;2.90;99.90;;;;;;5073318;28;20243;-68
2021/01/10 00:05:29;;;;;;;43.47;21.57;;;3.00;99.90;;;;;;5073219;28;20196;-68
2021/01/10 00:07:56;;;;;;;39.60;20.73;;;3.00;99.90;;;;;;5073197;28;20533;-67
2021/01/10 00:10:22;;;;;;;43.47;24.48;;;3.10;99.90;;;;;;5073143;28;20199;-68
2021/01/10 00:12:48;;;;;;;39.75;22.58;;;3.30;99.90;;;;;;5073145;28;20702;-67
2021/01/10 00:15:15;;;;;;;37.90;22.53;;;3.10;99.90;;;;;;5072990;28;20180;-68
2021/01/10 00:17:41;;;;;;;42.95;22.27;;;2.90;99.90;;;;;;5073331;28;20183;-68
2021/01/10 00:20:08;;;;;;;40.83;21.05;;;2.90;99.90;;;;;;5072813;28;20224;-68
2021/01/10 00:22:34;;;;;;;38.03;19.95;;;2.90;1.00;;;;;;5073242;28;20172;-68
2021/01/10 00:25:00;;;;;;;37.20;20.60;;;3.00;99.90;;;;;;5073058;28;20213;-68
2021/01/10 00:27:26;;;;;;;44.47;23.87;;;3.00;1.00;;;;;;5073045;28;20169;-68
2021/01/10 00:29:52;;;;;;;47.15;22.10;;;3.00;1.00;;;;;;5072746;28;20191;-68
2021/01/10 00:32:18;;;;;;;37.03;19.38;;;3.30;1.00;;;;;;5073357;28;20195;-68
2021/01/10 00:34:44;;;;;;;32.43;18.47;;;3.20;1.00;;;;;;5073739;28;20191;-68
2021/01/10 00:37:17;;;;;;;35.90;19.57;;;3.30;99.90;;;;;;5073471;28;20501;-68
2021/01/10 00:39:50;;;;;;;31.88;20.00;;;3.40;1.00;;;;;;5073046;28;20252;-68
2021/01/10 00:42:16;;;;;;;31.73;19.52;;;3.40;1.00;;;;;;5073107;28;20157;-68
2021/01/10 00:44:43;;;;;;;32.67;20.20;;;3.40;99.90;;;;;;5072747;28;20298;-68
2021/01/10 00:47:10;;;;;;;33.25;19.65;;;3.50;99.90;;;;;;5073089;28;20179;-68
2021/01/10 00:49:36;;;;;;;34.80;19.55;;;3.30;1.00;;;;;;5072613;28;20246;-68
2021/01/10 00:52:03;;;;;;;34.15;19.52;;;3.10;1.00;;;;;;5072971;28;20172;-68
2021/01/10 00:54:29;;;;;;;33.15;20.30;;;3.10;99.90;;;;;;5072973;28;20618;-69
2021/01/10 00:56:55;;;;;;;33.93;20.23;;;3.10;1.00;;;;;;5072637;28;20169;-68
2021/01/10 00:59:21;;;;;;;38.00;19.65;;;3.20;99.90;;;;;;5072627;28;20223;-68
2021/01/10 01:01:46;;;;;;;37.60;20.13;;;3.10;1.00;;;;;;5073151;28;20199;-68
2021/01/10 01:04:12;;;;;;;35.97;20.60;;;3.10;1.00;;;;;;5072585;28;20648;-69
2021/01/10 01:06:38;;;;;;;32.63;18.53;;;3.00;99.90;;;;;;5075390;28;20198;-68
2021/01/10 01:09:05;;;;;;;39.40;19.47;;;3.00;99.90;;;;;;5076632;28;20899;-67
2021/01/10 01:11:32;;;;;;;35.67;20.00;;;3.20;99.90;;;;;;5076470;28;20172;-68
2021/01/10 01:13:58;;;;;;;29.85;17.58;;;3.40;99.90;;;;;;5076239;28;20241;-68
2021/01/10 01:16:24;;;;;;;30.38;18.73;;;3.40;99.90;;;;;;5076571;28;20582;-67
2021/01/10 01:18:50;;;;;;;26.60;16.27;;;3.50;1.00;;;;;;5076321;28;20164;-68
2021/01/10 01:21:17;;;;;;;31.50;17.63;;;3.50;99.90;;;;;;5076387;28;20450;-68
2021/01/10 01:23:43;;;;;;;31.90;16.38;;;3.50;1.00;;;;;;5076228;28;20419;-67
2021/01/10 01:26:19;;;;;;;28.10;18.00;;;3.30;99.90;;;;;;5077090;28;20199;-67
2021/01/10 01:28:45;;;;;;;31.08;17.70;;;3.20;1.00;;;;;;5076396;28;20895;-68
2021/01/10 01:31:12;;;;;;;35.58;18.10;;;3.00;1.00;;;;;;5076282;28;20168;-68
2021/01/10 01:33:38;;;;;;;29.95;16.55;;;3.00;1.00;;;;;;5076460;28;20262;-68
2021/01/10 01:36:04;;;;;;;34.40;18.30;;;3.20;74.50;;;;;;5076213;28;20256;-68
2021/01/10 01:38:30;;;;;;;29.13;17.48;;;3.30;1.00;;;;;;5076186;28;20395;-67
2021/01/10 01:40:59;;;;;;;33.13;16.80;;;3.30;99.90;;;;;;5075843;28;20278;-68
2021/01/10 01:43:25;;;;;;;28.23;17.02;;;3.50;99.90;;;;;;5076067;28;20202;-68
2021/01/10 01:45:51;;;;;;;31.20;19.10;;;3.40;1.00;;;;;;5075633;28;20173;-68
2021/01/10 01:48:16;;;;;;;30.13;17.73;;;3.10;99.90;;;;;;5075547;28;20195;-68
2021/01/10 01:50:42;;;;;;;29.53;17.30;;;3.10;1.00;;;;;;5075454;28;20707;-68
2021/01/10 01:53:08;;;;;;;30.40;18.30;;;3.30;1.00;;;;;;5075496;28;20176;-67
2021/01/10 01:55:36;;;;;;;30.20;17.80;;;3.60;1.00;;;;;;5075939;28;20385;-68
2021/01/10 01:58:05;;;;;;;34.00;18.75;;;3.30;1.00;;;;;;5075706;28;20587;-67
2021/01/10 02:00:32;;;;;;;24.52;16.75;;;3.10;1.00;;;;;;5075460;28;20215;-67
2021/01/10 02:02:58;;;;;;;35.28;18.58;;;3.10;42.00;;;;;;5075643;28;20267;-68
2021/01/10 02:05:28;;;;;;;33.20;17.17;;;3.10;99.90;;;;;;5075327;28;20676;-69
2021/01/10 02:07:59;;;;;;;30.70;17.98;;;3.10;1.00;;;;;;5075291;28;20169;-67
2021/01/10 02:10:29;;;;;;;33.33;19.05;;;3.30;99.90;;;;;;5075226;28;20275;-67
2021/01/10 02:12:59;;;;;;;30.00;16.70;;;3.40;99.90;;;;;;5075114;28;20259;-68
2021/01/10 02:15:30;;;;;;;36.85;20.17;;;3.50;1.00;;;;;;5075628;28;20179;-67
2021/01/10 02:17:56;;;;;;;33.20;18.95;;;3.60;99.90;;;;;;5074461;28;20648;-68
2021/01/10 02:20:31;;;;;;;35.28;19.85;;;3.30;1.00;;;;;;5074867;28;20207;-68
2021/01/10 02:23:19;;;;;;;36.65;18.75;;;3.20;99.90;;;;;;5075276;28;20156;-68
2021/01/10 02:25:46;;;;;;;36.00;20.65;;;3.40;1.00;;;;;;5075072;28;20172;-68
2021/01/10 02:28:23;;;;;;;34.30;19.42;;;3.50;1.00;;;;;;5075251;28;20479;-68
2021/01/10 02:30:49;;;;;;;37.47;21.33;;;3.60;1.00;;;;;;5074717;28;20267;-68
2021/01/10 02:33:38;;;;;;;40.40;20.88;;;3.40;99.90;;;;;;5074885;28;20259;-68
2021/01/10 02:36:08;;;;;;;35.47;20.17;;;3.10;1.00;;;;;;5075041;28;20259;-68
2021/01/10 02:39:09;;;;;;;39.55;20.98;;;3.10;1.00;;;;;;5074722;28;20291;-68
2021/01/10 02:41:45;;;;;;;38.05;20.02;;;3.00;1.00;;;;;;5074619;28;20171;-68
2021/01/10 02:44:33;;;;;;;40.80;22.48;;;2.90;1.00;;;;;;5074687;28;20174;-68
2021/01/10 02:46:59;;;;;;;38.60;21.10;;;2.90;1.00;;;;;;5074449;28;20160;-68
2021/01/10 02:49:25;;;;;;;38.20;19.40;;;2.90;1.00;;;;;;5074370;28;20207;-68
2021/01/10 02:51:50;;;;;;;38.33;19.97;;;2.90;99.90;;;;;;5074482;28;20160;-68
2021/01/10 02:54:17;;;;;;;44.70;23.10;;;2.80;99.90;;;;;;5074677;28;20172;-68
2021/01/10 02:56:57;;;;;;;44.42;22.50;;;3.10;1.00;;;;;;5074266;28;20702;-68
2021/01/10 02:59:26;;;;;;;43.60;21.60;;;3.20;99.90;;;;;;5074383;28;20194;-68
2021/01/10 03:01:56;;;;;;;47.13;20.70;;;3.20;99.90;;;;;;5074191;28;20164;-68
2021/01/10 03:04:23;;;;;;;41.47;18.88;;;3.30;99.90;;;;;;5074381;28;20164;-68
2021/01/10 03:06:52;;;;;;;40.75;21.85;;;3.30;1.00;;;;;;5074093;28;20715;-68
2021/01/10 03:09:18;;;;;;;42.85;21.80;;;3.30;99.90;;;;;;5074241;28;20241;-68
2021/01/10 03:11:44;;;;;;;43.90;22.92;;;3.20;99.90;;;;;;5073913;28;20173;-68
2021/01/10 03:14:09;;;;;;;44.80;21.80;;;3.10;99.90;;;;;;5073953;28;20164;-68
2021/01/10 03:16:36;;;;;;;45.67;21.40;;;3.10;52.20;;;;;;5073890;28;20243;-68
2021/01/10 03:19:02;;;;;;;45.30;22.35;;;3.10;1.00;;;;;;5073826;28;20273;-68
2021/01/10 03:21:27;;;;;;;50.47;22.60;;;3.20;99.90;;;;;;5073787;28;20246;-68
2021/01/10 03:23:54;;;;;;;46.40;21.37;;;3.10;99.90;;;;;;5073792;28;20377;-68
2021/01/10 03:26:20;;;;;;;44.00;21.90;;;3.10;99.90;;;;;;5073753;28;20164;-69
2021/01/10 03:28:46;;;;;;;47.53;24.70;;;3.00;99.90;;;;;;5073057;28;20164;-68
2021/01/10 03:31:11;;;;;;;46.87;21.97;;;3.10;1.00;;;;;;5073549;28;20485;-68
2021/01/10 03:33:38;;;;;;;38.80;21.00;;;3.10;99.90;;;;;;5073599;28;20180;-68
2021/01/10 03:36:04;;;;;;;40.25;23.08;;;3.20;99.90;;;;;;5073764;28;20172;-68
2021/01/10 03:38:30;;;;;;;39.10;19.73;;;3.20;99.90;;;;;;5073850;28;20175;-68
2021/01/10 03:40:55;;;;;;;34.10;20.00;;;3.00;99.90;;;;;;5073350;28;20195;-68
2021/01/10 03:43:21;;;;;;;40.00;20.77;;;2.90;1.00;;;;;;5073388;28;20180;-68
2021/01/10 03:45:46;;;;;;;38.03;20.83;;;3.00;99.90;;;;;;5073452;28;20172;-68
2021/01/10 03:48:12;;;;;;;34.80;20.20;;;2.90;99.90;;;;;;5073302;28;20672;-68
2021/01/10 03:50:37;;;;;;;44.33;22.50;;;3.00;99.90;;;;;;5073306;28;20706;-68
2021/01/10 03:53:03;;;;;;;40.00;19.37;;;3.20;99.90;;;;;;5073327;28;20697;-68
2021/01/10 03:55:29;;;;;;;40.67;22.50;;;3.40;1.00;;;;;;5073292;28;20233;-68
2021/01/10 03:57:54;;;;;;;43.63;21.40;;;3.40;99.90;;;;;;5073245;28;20176;-68
2021/01/10 04:00:20;;;;;;;46.00;20.53;;;3.30;99.90;;;;;;5073165;28;20246;-68
2021/01/10 04:02:45;;;;;;;37.90;20.17;;;3.10;1.00;;;;;;5073235;28;20172;-69
2021/01/10 04:05:11;;;;;;;39.63;20.07;;;3.00;1.00;;;;;;5073135;28;20179;-68
2021/01/10 04:07:37;;;;;;;37.60;21.00;;;3.00;1.00;;;;;;5073160;28;20168;-68
2021/01/10 04:10:04;;;;;;;37.43;20.07;;;3.10;99.90;;;;;;5072966;28;20200;-68
2021/01/10 04:12:30;;;;;;;38.55;21.30;;;3.30;1.00;;;;;;5073053;28;20656;-67
2021/01/10 04:14:56;;;;;;;49.13;22.10;;;3.40;99.90;;;;;;5073284;28;20175;-68
2021/01/10 04:17:25;;;;;;;40.37;20.67;;;3.50;16.70;;;;;;5072924;28;20183;-68
2021/01/10 04:19:51;;;;;;;42.33;20.55;;;3.50;1.00;;;;;;5073092;28;20883;-68
2021/01/10 04:22:17;;;;;;;36.80;19.58;;;3.50;99.90;;;;;;5073103;28;20245;-68
2021/01/10 04:24:42;;;;;;;48.30;20.67;;;3.20;99.90;;;;;;5072938;28;20649;-67
2021/01/10 04:27:08;;;;;;;38.80;21.50;;;3.10;99.90;;;;;;5072864;28;20176;-68
2021/01/10 04:29:33;;;;;;;38.90;20.63;;;3.00;99.90;;;;;;5072771;28;20188;-68
2021/01/10 04:31:59;;;;;;;37.93;21.10;;;3.10;99.90;;;;;;5072866;28;20168;-68
2021/01/10 04:34:24;;;;;;;36.97;20.13;;;3.10;99.90;;;;;;5073045;28;20225;-68
2021/01/10 04:36:50;;;;;;;40.73;21.07;;;3.20;1.00;;;;;;5072793;28;20255;-68
2021/01/10 04:39:16;;;;;;;38.93;19.67;;;3.10;99.90;;;;;;5073415;28;20643;-67
2021/01/10 04:41:43;;;;;;;37.53;21.57;;;2.90;99.90;;;;;;5075815;28;20168;-68
2021/01/10 04:44:09;;;;;;;41.08;20.88;;;2.90;1.00;;;;;;5076882;28;20633;-68
2021/01/10 04:46:36;;;;;;;40.67;22.50;;;3.00;1.00;;;;;;5076807;28;20172;-68
2021/01/10 04:49:02;;;;;;;40.95;20.60;;;2.90;90.50;;;;;;5076598;28;20512;-68
2021/01/10 04:51:28;;;;;;;36.33;20.57;;;2.90;99.90;;;;;;5077021;28;20726;-68
2021/01/10 04:54:00;;;;;;;37.10;18.77;;;2.90;99.90;;;;;;5076952;28;20420;-68
2021/01/10 04:56:29;;;;;;;39.17;20.92;;;3.20;99.90;;;;;;5076627;28;20243;-68
2021/01/10 04:59:00;;;;;;;39.60;21.80;;;3.50;1.00;;;;;;5076510;28;20249;-68
2021/01/10 05:01:29;;;;;;;42.30;22.08;;;3.60;92.80;;;;;;5076441;28;20188;-68
2021/01/10 05:03:55;;;;;;;37.58;19.88;;;3.50;99.90;;;;;;5076848;28;20172;-68
2021/01/10 05:06:22;;;;;;;35.72;21.27;;;3.30;1.00;;;;;;5076682;28;20179;-69
2021/01/10 05:08:48;;;;;;;40.90;20.65;;;3.00;11.60;;;;;;5076308;28;20178;-68
2021/01/10 05:11:17;;;;;;;38.28;20.40;;;3.10;1.00;;;;;;5076690;28;20613;-68
2021/01/10 05:13:44;;;;;;;37.53;20.60;;;3.00;99.90;;;;;;5076561;28;20293;-68
2021/01/10 05:16:16;;;;;;;40.03;20.42;;;3.10;1.00;;;;;;5076377;28;20251;-68
2021/01/10 05:18:53;;;;;;;35.50;19.42;;;3.00;99.90;;;;;;5076486;28;20164;-68
2021/01/10 05:21:19;;;;;;;38.90;19.77;;;2.90;99.90;;;;;;5076306;28;20274;-68
2021/01/10 05:23:51;;;;;;;36.63;22.35;;;2.80;99.90;;;;;;5076436;28;20586;-68
2021/01/10 05:26:18;;;;;;;33.50;18.92;;;2.90;1.00;;;;;;5076305;28;20164;-68
2021/01/10 05:28:45;;;;;;;30.50;17.85;;;2.90;1.00;;;;;;5075891;28;20205;-68
2021/01/10 05:31:10;;;;;;;36.58;19.83;;;2.80;99.90;;;;;;5076209;28;20188;-68
2021/01/10 05:33:50;;;;;;;32.77;17.23;;;2.90;12.60;;;;;;5076120;28;20176;-68
2021/01/10 05:36:28;;;;;;;38.45;19.30;;;3.10;99.90;;;;;;5076108;28;20398;-68
2021/01/10 05:38:54;;;;;;;32.05;18.23;;;3.40;99.90;;;;;;5076058;28;20924;-68
2021/01/10 05:41:21;;;;;;;38.17;18.23;;;3.30;1.00;;;;;;5075671;28;20192;-68
2021/01/10 05:44:00;;;;;;;39.63;18.75;;;3.20;99.90;;;;;;5075681;28;20156;-68
2021/01/10 05:46:30;;;;;;;37.92;19.92;;;3.20;1.00;;;;;;5075661;28;20643;-68
2021/01/10 05:48:57;;;;;;;36.97;18.77;;;3.40;1.00;;;;;;5075579;28;20315;-68
2021/01/10 05:51:26;;;;;;;33.83;18.90;;;3.60;1.00;;;;;;5075441;28;20180;-68
2021/01/10 05:53:52;;;;;;;39.80;19.50;;;3.20;9.70;;;;;;5074811;28;20168;-68
2021/01/10 05:56:18;;;;;;;34.20;19.23;;;3.20;17.40;;;;;;5075506;28;20226;-69
2021/01/10 05:58:45;;;;;;;33.22;18.23;;;3.40;99.90;;;;;;5075630;28;20664;-68
2021/01/10 06:01:13;;;;;;;37.08;18.50;;;3.40;99.90;;;;;;5075346;28;20198;-68
2021/01/10 06:03:39;;;;;;;42.40;19.80;;;3.20;1.00;;;;;;5075406;28;20706;-69
2021/01/10 06:06:06;;;;;;;34.08;18.75;;;3.20;21.10;;;;;;5075488;28;20169;-68
2021/01/10 06:08:41;;;;;;;37.22;19.75;;;3.30;99.90;;;;;;5075594;28;20175;-68
2021/01/10 06:11:19;;;;;;;36.88;18.80;;;3.40;99.90;;;;;;5075264;28;20175;-68
2021/01/10 06:14:02;;;;;;;34.83;19.75;;;3.60;99.90;;;;;;5075470;28;20168;-68
2021/01/10 06:16:32;;;;;;;34.47;17.40;;;3.40;99.90;;;;;;5075511;28;20251;-68
2021/01/10 06:19:04;;;;;;;33.05;17.80;;;3.50;80.50;;;;;;5074968;28;20274;-69
2021/01/10 06:21:31;;;;;;;37.35;17.95;;;3.50;99.90;;;;;;5075230;28;20312;-68
2021/01/10 06:24:02;;;;;;;38.45;20.33;;;3.80;99.90;;;;;;5075542;28;20165;-68
2021/01/10 06:26:44;;;;;;;37.63;18.58;;;3.80;99.90;;;;;;5075476;28;20268;-68
2021/01/10 06:29:13;;;;;;;41.78;18.95;;;3.40;1.00;;;;;;5075046;28;20188;-68
2021/01/10 06:31:45;;;;;;;40.97;20.67;;;3.70;99.90;;;;;;5075067;28;20216;-68
2021/01/10 06:34:11;;;;;;;35.13;20.05;;;3.80;1.00;;;;;;5074827;28;20149;-68
2021/01/10 06:36:39;;;;;;;34.40;17.35;;;3.70;1.00;;;;;;5074761;28;20168;-68
2021/01/10 06:39:12;;;;;;;38.17;17.58;;;3.50;99.90;;;;;;5074622;28;20192;-69
2021/01/10 06:41:52;;;;;;;40.35;19.25;;;3.50;99.90;;;;;;5074632;28;20227;-68
2021/01/10 06:44:20;;;;;;;38.03;18.92;;;3.50;1.00;;;;;;5074996;28;20297;-68
2021/01/10 06:46:54;;;;;;;38.08;17.95;;;3.30;99.90;;;;;;5074868;28;20537;-68
2021/01/10 06:49:20;;;;;;;42.53;19.20;;;3.70;99.90;;;;;;5074279;28;20282;-68
2021/01/10 06:51:47;;;;;;;38.65;19.42;;;3.60;1.00;;;;;;5074682;28;20179;-68
2021/01/10 06:54:13;;;;;;;38.88;19.30;;;3.60;1.00;;;;;;5074890;28;20164;-68
2021/01/10 06:56:46;;;;;;;33.60;19.52;;;3.60;1.00;;;;;;5074303;28;20165;-68
2021/01/10 06:59:22;;;;;;;38.20;20.08;;;3.60;19.60;;;;;;5074554;28;20192;-68
2021/01/10 07:01:47;;;;;;;39.53;20.55;;;3.50;99.90;;;;;;5074626;28;20172;-68
2021/01/10 07:04:13;;;;;;;43.90;20.00;;;3.50;99.90;;;;;;5074047;28;20275;-68
2021/01/10 07:06:47;;;;;;;48.25;21.65;;;3.40;99.90;;;;;;5074148;28;20171;-68
2021/01/10 07:09:14;;;;;;;48.40;24.20;;;3.10;14.00;;;;;;5074113;28;20229;-68
2021/01/10 07:11:40;;;;;;;48.10;23.67;;;2.90;99.90;;;;;;5074017;28;20537;-68
2021/01/10 07:14:05;;;;;;;42.25;21.17;;;3.10;1.00;;;;;;5073933;28;20222;-68
2021/01/10 07:16:34;;;;;;;39.03;19.50;;;3.30;1.00;;;;;;5073994;28;20601;-68
2021/01/10 07:19:03;;;;;;;45.75;22.60;;;3.50;99.90;;;;;;5074025;28;20286;-68
2021/01/10 07:21:36;;;;;;;45.08;20.98;;;3.60;99.90;;;;;;5073716;28;20266;-67
2021/01/10 07:24:16;;;;;;;49.40;22.92;;;3.60;1.00;;;;;;5073817;28;20168;-68
2021/01/10 07:26:58;;;;;;;46.25;22.45;;;3.60;99.90;;;;;;5073945;28;20167;-68
2021/01/10 07:29:33;;;;;;;43.05;21.92;;;3.70;99.90;;;;;;5073600;28;20672;-68
2021/01/10 07:32:00;;;;;;;40.10;22.02;;;3.60;1.00;;;;;;5073739;28;20183;-65
2021/01/10 07:34:30;;;;;;;46.08;21.17;;;3.60;1.00;;;;;;5073441;28;20168;-68
2021/01/10 07:37:01;;;;;;;49.65;21.42;;;3.40;99.90;;;;;;5073697;28;20471;-68
2021/01/10 07:39:28;;;;;;;47.67;22.83;;;3.30;99.90;;;;;;5073266;28;20184;-68
2021/01/10 07:42:15;;;;;;;43.22;22.77;;;3.30;1.00;;;;;;5073307;28;20668;-68
2021/01/10 07:44:47;;;;;;;45.03;21.42;;;3.50;38.00;;;;;;5073373;28;20165;-68
2021/01/10 07:47:13;;;;;;;44.90;22.70;;;3.50;1.00;;;;;;5073325;28;20160;-68
2021/01/10 07:49:50;;;;;;;46.47;22.37;;;3.40;99.90;;;;;;5073422;28;20253;-68
2021/01/10 07:52:17;;;;;;;54.28;23.45;;;3.20;22.90;;;;;;5073488;28;20176;-67
2021/01/10 07:54:56;;;;;;;48.13;22.35;;;3.50;1.00;;;;;;5073258;28;20171;-68
2021/01/10 07:57:34;;;;;;;42.20;21.38;;;3.50;1.00;;;;;;5073373;28;20160;-68
2021/01/10 08:00:10;;;;;;;44.88;21.98;;;3.60;99.90;;;;;;5073145;28;20195;-68
2021/01/10 08:02:49;;;;;;;42.35;21.40;;;3.50;99.90;;;;;;5073306;28;20583;-68
2021/01/10 08:05:36;;;;;;;44.90;21.65;;;3.40;99.90;;;;;;5073580;28;20186;-68
2021/01/10 08:08:14;;;;;;;38.83;21.25;;;3.40;6.60;;;;;;5072652;28;20186;-68
2021/01/10 08:10:49;;;;;;;37.78;21.05;;;3.10;99.90;;;;;;5073219;28;20195;-68
2021/01/10 08:13:38;;;;;;;48.15;23.45;;;3.50;99.90;;;;;;5073343;28;20160;-68
2021/01/10 08:16:08;;;;;;;42.75;21.05;;;3.60;22.90;;;;;;5072384;28;20152;-68
2021/01/10 08:18:40;;;;;;;39.15;18.98;;;3.60;99.90;;;;;;5073420;28;20176;-68
2021/01/10 08:21:15;;;;;;;46.90;20.08;;;3.40;99.90;;;;;;5073844;28;20605;-68
2021/01/10 08:23:46;;;;;;;45.30;22.42;;;3.50;1.00;;;;;;5074094;28;20524;-68
2021/01/10 08:26:18;;;;;;;42.53;22.33;;;3.40;1.00;;;;;;5072936;28;20164;-68
2021/01/10 08:28:55;;;;;;;39.28;19.75;;;3.50;1.00;;;;;;5072865;28;20161;-68
2021/01/10 08:31:26;;;;;;;48.60;21.70;;;3.50;92.70;;;;;;5073163;28;20544;-68
2021/01/10 08:34:06;;;;;;;38.47;21.13;;;3.50;99.90;;;;;;5072952;28;20152;-68
2021/01/10 08:36:32;;;;;;;44.55;22.52;;;3.30;99.90;;;;;;5072764;28;20156;-68
2021/01/10 08:39:04;;;;;;;42.72;21.17;;;3.60;1.00;;;;;;5072644;28;20196;-68
2021/01/10 08:41:35;;;;;;;47.03;22.02;;;3.60;1.00;;;;;;5072623;28;20541;-68
2021/01/10 08:44:04;;;;;;;38.92;21.27;;;3.70;1.00;;;;;;5072741;28;20633;-68
2021/01/10 08:46:32;;;;;;;44.63;22.20;;;3.70;99.90;;;;;;5072690;28;20176;-68
2021/01/10 08:48:58;;;;;;;48.20;22.88;;;3.80;1.00;;;;;;5072482;28;20203;-68
2021/01/10 08:51:34;;;;;;;50.42;25.85;;;3.70;52.20;;;;;;5072678;28;20641;-68
2021/01/10 08:54:02;;;;;;;49.53;24.88;;;3.80;99.90;;;;;;5072900;28;20175;-68
2021/01/10 08:56:29;;;;;;;48.58;22.35;;;3.90;1.00;;;;;;5072839;28;20260;-68
2021/01/10 08:58:56;;;;;;;52.63;25.15;;;3.70;99.90;;;;;;5072537;28;20261;-68
2021/01/10 09:01:23;;;;;;;43.05;23.83;;;3.80;1.00;;;;;;5072758;28;20683;-68
2021/01/10 09:04:09;;;;;;;44.78;23.42;;;3.70;41.40;;;;;;5072717;28;20172;-68
2021/01/10 09:06:38;;;;;;;42.60;21.52;;;3.70;99.90;;;;;;5072443;28;20668;-68
2021/01/10 09:09:36;;;;;;;46.38;23.45;;;3.70;1.00;;;;;;5072369;28;20263;-68
2021/01/10 09:12:25;;;;;;;43.90;20.60;;;3.80;1.00;;;;;;5072464;28;20144;-68
2021/01/10 09:14:57;;;;;;;45.08;22.40;;;4.00;99.90;;;;;;5072549;28;20152;-68
2021/01/10 09:17:29;;;;;;;40.85;20.63;;;3.80;99.90;;;;;;5072413;28;20152;-68
2021/01/10 09:20:02;;;;;;;39.92;21.08;;;4.00;99.90;;;;;;5073034;28;20192;-68
2021/01/10 09:22:30;;;;;;;48.95;20.10;;;4.20;99.90;;;;;;5072446;28;20644;-68
2021/01/10 09:24:55;;;;;;;42.97;20.67;;;4.30;1.00;;;;;;5072585;28;20169;-68
2021/01/10 09:27:21;;;;;;;36.93;18.30;;;4.10;81.90;;;;;;5074360;28;20160;-68
2021/01/10 09:29:47;;;;;;;35.63;17.83;;;3.90;99.90;;;;;;5076123;28;20317;-68
2021/01/10 09:32:22;;;;;;;31.97;18.13;;;4.10;18.50;;;;;;5075938;28;20172;-68
2021/01/10 09:34:56;;;;;;;32.92;18.77;;;4.10;57.30;;;;;;5076055;28;20178;-69
2021/01/10 09:37:29;;;;;;;34.30;19.25;;;4.00;99.90;;;;;;5075779;28;20653;-66
2021/01/10 09:40:06;;;;;;;35.17;20.02;;;4.20;99.90;;;;;;5076191;28;20207;-68
2021/01/10 09:42:52;;;;;;;28.42;14.52;;;4.30;1.00;;;;;;5075880;28;20167;-68
2021/01/10 09:45:33;;;;;;;27.25;16.67;;;4.20;1.00;;;;;;5075688;28;20730;-68
2021/01/10 09:48:00;;;;;;;30.95;15.95;;;4.10;99.90;;;;;;5075757;28;20180;-68
2021/01/10 09:50:25;;;;;;;31.80;16.23;;;4.20;1.00;;;;;;5075734;28;20274;-68
2021/01/10 09:52:52;;;;;;;33.40;16.73;;;4.00;99.90;;;;;;5075678;28;20616;-68
2021/01/10 09:55:19;;;;;;;29.27;16.02;;;4.00;99.90;;;;;;5075727;28;20183;-67
2021/01/10 09:57:45;;;;;;;36.33;17.20;;;4.00;99.90;;;;;;5075660;28;20234;-68
2021/01/10 10:00:15;;;;;;;34.40;18.50;;;4.00;99.90;;;;;;5075378;28;20203;-68
2021/01/10 10:02:45;;;;;;;32.38;15.18;;;3.90;99.90;;;;;;5075344;28;20172;-69
2021/01/10 10:05:14;;;;;;;40.35;18.77;;;3.90;1.00;;;;;;5075349;28;20210;-68
2021/01/10 10:07:46;;;;;;;34.15;17.55;;;3.90;1.00;;;;;;5075794;28;20168;-68
2021/01/10 10:10:20;;;;;;;38.38;18.80;;;3.80;99.90;;;;;;5075474;28;20267;-68
2021/01/10 10:12:54;;;;;;;39.17;18.63;;;3.90;1.00;;;;;;5075566;28;20539;-68
2021/01/10 10:15:20;;;;;;;31.42;17.70;;;4.10;99.90;;;;;;5075307;28;20176;-68
2021/01/10 10:17:45;;;;;;;32.77;16.70;;;4.10;99.90;;;;;;5075249;28;20172;-68
2021/01/10 10:20:11;;;;;;;39.13;18.20;;;3.70;1.00;;;;;;5075042;28;20239;-68
2021/01/10 10:22:38;;;;;;;28.03;15.80;;;3.90;91.40;;;;;;5075612;28;20215;-68
2021/01/10 10:25:08;;;;;;;37.03;18.50;;;4.00;1.00;;;;;;5075287;28;20211;-68
2021/01/10 10:27:35;;;;;;;41.90;18.20;;;4.10;1.00;;;;;;5074988;28;20161;-68
2021/01/10 10:30:02;;;;;;;33.05;18.52;;;4.10;99.90;;;;;;5075169;28;20203;-68
2021/01/10 10:32:29;;;;;;;29.73;17.08;;;4.00;67.80;;;;;;5075172;28;20247;-68
2021/01/10 10:34:55;;;;;;;39.00;18.48;;;4.00;1.00;;;;;;5074812;28;20295;-68
2021/01/10 10:37:21;;;;;;;33.57;18.80;;;4.00;73.10;;;;;;5074755;28;20250;-68
2021/01/10 10:39:47;;;;;;;35.95;17.35;;;4.30;99.90;;;;;;5074139;28;20610;-68
2021/01/10 10:42:17;;;;;;;34.87;18.20;;;4.30;50.70;;;;;;5075046;28;20173;-68
2021/01/10 10:44:44;;;;;;;34.83;18.48;;;4.40;99.90;;;;;;5074932;28;20398;-68
2021/01/10 10:47:12;;;;;;;37.42;18.30;;;4.30;1.00;;;;;;5074498;28;20203;-67
2021/01/10 10:49:37;;;;;;;42.42;18.70;;;4.20;1.00;;;;;;5074694;28;20203;-68
2021/01/10 10:52:07;;;;;;;35.67;18.57;;;4.30;1.00;;;;;;5074527;28;20165;-68
2021/01/10 10:54:33;;;;;;;37.83;19.70;;;4.40;1.00;;;;;;5074711;28;20168;-68
2021/01/10 10:56:58;;;;;;;38.27;19.17;;;4.50;1.00;;;;;;5074665;28;20590;-69
2021/01/10 10:59:24;;;;;;;42.40;21.90;;;4.60;1.00;;;;;;5074279;28;20195;-67
2021/01/10 11:01:49;;;;;;;33.37;16.60;;;4.50;99.90;;;;;;5074301;28;20195;-68
2021/01/10 11:04:15;;;;;;;40.93;18.77;;;4.60;99.90;;;;;;5074069;28;20172;-68
2021/01/10 11:06:41;;;;;;;32.00;17.03;;;4.60;1.00;;;;;;5074260;28;20176;-69
2021/01/10 11:09:10;;;;;;;39.17;18.43;;;4.80;1.00;;;;;;5074084;28;20696;-69
2021/01/10 11:11:41;;;;;;;38.67;18.15;;;4.70;99.90;;;;;;5074228;28;20172;-69
2021/01/10 11:14:08;;;;;;;36.38;19.23;;;4.80;99.90;;;;;;5073883;28;20544;-69
2021/01/10 11:16:35;;;;;;;28.83;14.75;;;4.70;99.90;;;;;;5074194;28;20176;-69
2021/01/10 11:19:01;;;;;;;28.08;16.80;;;4.70;99.90;;;;;;5073744;28;20672;-69
2021/01/10 11:21:33;;;;;;;27.27;16.10;;;4.60;99.90;;;;;;5073638;28;20282;-69
2021/01/10 11:23:59;;;;;;;29.23;15.73;;;4.80;99.90;;;;;;5074047;28;20582;-69
2021/01/10 11:26:25;;;;;;;30.15;16.27;;;4.80;99.90;;;;;;5073730;28;20195;-69
2021/01/10 11:28:51;;;;;;;27.80;15.70;;;4.50;99.90;;;;;;5073852;28;20226;-69
2021/01/10 11:31:18;;;;;;;29.00;16.33;;;4.70;99.90;;;;;;5074272;28;20176;-69
2021/01/10 11:33:44;;;;;;;30.30;17.20;;;4.70;99.90;;;;;;5073790;28;20414;-69
2021/01/10 11:36:10;;;;;;;24.15;14.55;;;4.60;1.00;;;;;;5073573;28;20172;-68
2021/01/10 11:38:36;;;;;;;28.40;16.45;;;4.70;99.90;;;;;;5073377;28;20239;-69
2021/01/10 11:41:09;;;;;;;37.37;16.20;;;4.90;99.90;;;;;;5073589;28;20196;-67
2021/01/10 11:43:36;;;;;;;27.75;14.30;;;5.00;99.90;;;;;;5073568;28;20518;-69
2021/01/10 11:46:03;;;;;;;30.80;15.95;;;5.00;99.90;;;;;;5073626;28;20265;-69
2021/01/10 11:48:29;;;;;;;30.27;17.38;;;5.00;99.90;;;;;;5073238;28;20187;-67
2021/01/10 11:50:55;;;;;;;25.00;14.33;;;5.10;99.90;;;;;;5072642;28;20196;-68
2021/01/10 11:53:20;;;;;;;28.43;14.87;;;4.90;99.90;;;;;;5073260;28;20478;-69
2021/01/10 11:55:46;;;;;;;29.30;15.20;;;5.00;99.90;;;;;;5073515;28;20444;-68
2021/01/10 11:58:12;;;;;;;29.57;14.17;;;5.10;99.90;;;;;;5073573;28;20636;-68
2021/01/10 12:00:38;;;;;;;26.10;14.93;;;5.10;99.90;;;;;;5073279;28;20252;-68
2021/01/10 12:03:04;;;;;;;31.83;16.38;;;5.10;99.90;;;;;;5073142;28;20168;-67
2021/01/10 12:05:29;;;;;;;30.20;14.70;;;5.20;99.90;;;;;;5073330;28;20302;-68
2021/01/10 12:07:55;;;;;;;26.30;14.30;;;5.10;99.90;;;;;;5073120;28;20199;-67
2021/01/10 12:10:20;;;;;;;23.73;14.00;;;5.10;99.90;;;;;;5072856;28;20191;-67
2021/01/10 12:12:46;;;;;;;29.27;15.87;;;4.90;99.90;;;;;;5072894;28;20259;-69
2021/01/10 12:15:11;;;;;;;29.40;15.77;;;4.90;99.90;;;;;;5071727;28;20204;-68
2021/01/10 12:17:37;;;;;;;34.97;15.80;;;4.60;99.90;;;;;;5073165;28;20226;-68
2021/01/10 12:20:04;;;;;;;27.30;14.33;;;4.30;99.90;;;;;;5072671;28;20196;-68
2021/01/10 12:22:29;;;;;;;27.33;13.95;;;4.50;99.90;;;;;;5073134;28;20226;-68
2021/01/10 12:24:55;;;;;;;26.80;15.20;;;4.30;99.90;;;;;;5072755;28;20164;-68
2021/01/10 12:27:20;;;;;;;29.00;14.80;;;4.80;99.90;;;;;;5072756;28;20226;-68
2021/01/10 12:29:46;;;;;;;36.87;16.67;;;4.70;99.90;;;;;;5073087;28;20196;-68
2021/01/10 12:32:11;;;;;;;27.73;14.80;;;4.70;99.90;;;;;;5072747;28;20187;-68
2021/01/10 12:34:37;;;;;;;32.37;16.43;;;4.90;99.90;;;;;;5072811;28;20172;-68
2021/01/10 12:37:02;;;;;;;25.07;13.93;;;4.90;99.90;;;;;;5072786;28;20164;-68
2021/01/10 12:39:28;;;;;;;30.43;16.07;;;4.90;99.90;;;;;;5072509;28;20180;-68
2021/01/10 12:41:53;;;;;;;26.90;13.93;;;5.00;99.90;;;;;;5072760;28;20202;-68
2021/01/10 12:44:19;;;;;;;27.90;13.17;;;4.90;99.90;;;;;;5072640;28;20532;-67
2021/01/10 12:46:44;;;;;;;29.27;14.97;;;5.10;99.90;;;;;;5072621;28;20643;-68
2021/01/10 12:49:10;;;;;;;26.80;13.60;;;5.00;99.90;;;;;;5072530;28;20660;-67